x

Corpus Christi, Tx - 60nm Sse Of Corpus Christi, Tx (42020) Wave Buoy

3:50am - Mon 4th May 2015 All times are CDT. -5 hours from GMT.

  • Sig Wave height 3.6ft
  • Swell Direction
  • Peak Period 6s
  • Average Period 4s
  • Wind
    18mph, 20mph gusts
  • Sea Temp 74°f
  • Air Temp 75°f
  • Sea Pressure 1014.2mb
  • Corpus Christi, Tx - 60nm Sse Of Corpus Christi, Tx
  • Corpus Christi, Tx - 60nm Sse Of Corpus Christi, Tx

More Historic Weather Station data

Upgrade to MSW Pro to gain access to the past 30 days of data for over 8000 Wavebouys and Weather Stations around the globe.

Join Pro

Comparision Forecast

View Surf forecast
   
Mon 05/04 3:50am 3.5ft 6s 4s 18 20 mph 1014.2mb 74f 75f
2:50am 4ft 6s 4s 16 20 mph 1014.7mb 74f 75f
1:50am 4.5ft 6s 4s 18 22 mph 1014.8mb 74f 75f
12:50am 4ft 6s 4s 18 22 mph 1015mb 74f 75f
Sun 05/03 11:50pm 4ft 6s 4s 18 22 mph 1015.1mb 74f 75f
10:50pm 4ft 6s 4s 20 25 mph 1014.7mb 74f 75f
9:50pm 3.5ft 5s 4s 20 25 mph 1014.5mb 75f 75f
8:50pm 3.5ft 5s 4s 20 22 mph 1014.2mb 75f 75f
7:50pm 2.5ft 5s 4s 18 22 mph 1014.3mb 75f 75f
6:50pm 2.5ft 5s 4s 18 20 mph 1014.2mb 75f 75f
5:50pm 2.5ft 5s 4s 13 16 mph 1014.2mb 75f 75f
4:50pm 2.5ft 5s 4s 13 18 mph 1014.5mb 75f 75f
3:50pm 2.5ft 5s 4s 13 16 mph 1014.9mb 75f 75f
2:50pm 2.5ft 5s 4s 13 16 mph 1015.5mb 75f 75f
1:50pm 2.5ft 5s 4s 16 18 mph 1015.7mb 74f 75f
12:50pm 2.5ft 5s 4s 13 16 mph 1016.4mb 74f 75f
11:50am 2.5ft 5s 4s 11 13 mph 1016.5mb 74f 75f
10:50am 3ft 5s 4s 13 16 mph 1016.4mb 74f 75f
9:50am 3ft 5s 4s 13 16 mph 1016.2mb 74f 74f
8:50am 3ft 5s 4s 16 20 mph 1015.4mb 74f 74f
7:50am 3.5ft 5s 4s 18 20 mph 1015mb 74f 74f
6:50am 3.5ft 5s 4s 18 20 mph 1014.5mb 74f 74f
5:50am 3.5ft 5s 4s 18 20 mph 1014.1mb 74f 74f
4:50am 2.5ft 5s 4s 18 20 mph 1014.1mb 74f 74f
3:50am 2.5ft 4s 4s 18 22 mph 1014.5mb 74f 74f
2:50am 2ft 4s 3s 16 18 mph 1014.8mb 74f 74f
1:50am 2ft 3s 3s 16 18 mph 1015.2mb 74f 74f
12:50am 2ft 4s 3s 16 18 mph 1015.6mb 74f 74f
Sat 05/02 11:50pm 2.5ft 4s 4s 18 20 mph 1016mb 74f 74f
10:50pm 2.5ft 4s 3s 16 20 mph 1016.1mb 74f 74f
9:50pm 2ft 3s 3s 18 20 mph 1015.6mb 74f 74f
8:50pm 1.6ft 3s 3s 16 18 mph 1015.3mb 75f 73f
7:50pm 1.3ft 3s 3s 16 20 mph 1015mb 75f 73f
6:50pm 1.3ft 3s 3s 13 16 mph 1015.1mb 75f 73f
5:50pm 1.3ft 3s 3s 13 16 mph 1015.3mb 75f 73f
4:50pm 1ft 3s 3s 13 16 mph 1015.7mb 75f 73f
3:50pm 1ft 6s 3s 11 16 mph 1016.4mb 76f 73f
2:50pm 0.7ft  -  3s 9 11 mph 1017.2mb 76f 73f
1:50pm 0.7ft  -  3s 9
mph
1017.9mb 75f 73f
12:50pm 1ft 6s 4s 7 9 mph 1018.7mb 75f 73f
11:50am 0.7ft  -  4s 7 9 mph 1018.8mb 75f 73f
10:50am 0.7ft  -  4s 7 9 mph 1018.7mb 74f 73f
9:50am 0.7ft  -  4s 7 11 mph 1018.3mb 74f 73f
8:50am 0.7ft  -  3s 7 9 mph 1018mb 74f 73f
7:50am 0.7ft  -  4s 7 11 mph 1017.5mb 74f 72f
6:50am 0.7ft  -  3s 7 9 mph 1017mb 74f 72f
5:50am 0.7ft  -  4s 4 7 mph 1017mb 74f 72f
4:50am 0.7ft  -  4s 7
mph
1017mb 74f 72f
3:50am 0.7ft  -  4s 7 11 mph 1017.3mb 74f 72f
2:50am 0.7ft  -  4s 9
mph
1017.4mb 74f 72f
1:50am 1ft 5s 4s 9 11 mph 1017.8mb 74f 72f
12:50am 0.7ft  -  4s 9 11 mph 1018.2mb 74f 72f
Fri 05/01 11:50pm 0.7ft  -  4s 9
mph
1018.4mb 74f 73f
10:50pm 1ft 5s 4s 9 11 mph 1018.4mb 74f 73f
9:50pm 0.7ft  -  4s 9 11 mph 1017.9mb 75f 73f
8:50pm 1ft 5s 5s 7 9 mph 1017.4mb 75f 73f
7:50pm 1ft 5s 5s 7 9 mph 1016.8mb 75f 73f
6:50pm 1ft 5s 5s 7 9 mph 1016.2mb 76f 73f
5:50pm 1ft 5s 4s 4 7 mph 1016.2mb 76f 73f
4:50pm 0.7ft  -  4s 4
mph
1016.5mb 76f 73f
3:50pm 0.7ft  -  4s 4 7 mph 1016.9mb 76f 73f
2:50pm 0.7ft  -  4s 4 7 mph 1017.6mb 76f 73f
1:50pm 0.7ft  -  4s 4 7 mph 1018mb 76f 73f
12:50pm 1ft 4s 4s 4 9 mph 1018.4mb 75f 72f
11:50am 1ft 5s 5s 4 7 mph 1018.4mb 75f 73f
10:50am 1ft 6s 4s 2 4 mph 1018.2mb 74f 73f
9:50am 0.7ft  -  4s 2 4 mph 1017.6mb 74f 73f
8:50am 0.7ft  -  4s 4
mph
1017.1mb 74f 73f
7:50am 0.7ft  -  4s 2 4 mph 1016.8mb 74f 73f
6:50am 0.7ft  -  4s 2 4 mph 1016.2mb 73f 72f
5:50am 1ft 5s 4s 4
mph
1015.7mb 74f 72f
4:50am 1ft 5s 4s 7 9 mph 1015.2mb 74f 72f
3:50am 1ft 5s 4s 7
mph
1015.4mb 74f 72f
2:50am 1ft 5s 4s 9 11 mph 1015.5mb 74f 72f
1:50am 1ft 5s 4s 9 11 mph 1015.9mb 74f 72f
12:50am 1ft 5s 4s 9 11 mph 1016.1mb 74f 72f
Thu 04/30 11:50pm 1ft 4s 4s 9 11 mph 1016.1mb 74f 72f
10:50pm 1.3ft 5s 4s 7 9 mph 1016.3mb 74f 71f
9:50pm 1ft 5s 4s 7
mph
1015.9mb 74f 71f
8:50pm 1.3ft 4s 4s 4 7 mph 1015.6mb 74f 71f
7:50pm 1.3ft 5s 4s 2
mph
1015.3mb 74f 71f
6:50pm 1.3ft 5s 4s 2 4 mph 1014.8mb 74f 71f
5:50pm 1.3ft 4s 4s 2 4 mph 1014.8mb 74f 71f
4:50pm 1.6ft 4s 4s 7
mph
1015mb 74f 71f
3:50pm 1.6ft 4s 4s 7 9 mph 1015.6mb 74f 71f
2:50pm 2ft 5s 4s 7 9 mph 1016.3mb 74f 70f
1:50pm 2ft 4s 4s 9 11 mph 1016.8mb 74f 70f
12:50pm 2.5ft 5s 4s 9 11 mph 1017.2mb 74f 69f
11:50am 2.5ft 7s 4s 11 13 mph 1017.3mb 73f 69f
10:50am 2.5ft 8s 4s 13 16 mph 1017.1mb 73f 69f